sensor_id;sensor_type;location;lat;lon;timestamp;P1;durP1;ratioP1;P2;durP2;ratioP2
43363;SDS011;40636;52.424;-1.948;2022-07-24T00:00:24;7.93;;;3.22;;
43363;SDS011;40636;52.424;-1.948;2022-07-24T00:02:51;5.30;;;3.10;;
43363;SDS011;40636;52.424;-1.948;2022-07-24T00:05:18;7.15;;;2.80;;
43363;SDS011;40636;52.424;-1.948;2022-07-24T00:07:45;18.92;;;3.92;;
43363;SDS011;40636;52.424;-1.948;2022-07-24T00:10:12;4.78;;;3.38;;
43363;SDS011;40636;52.424;-1.948;2022-07-24T00:12:40;7.07;;;3.47;;
43363;SDS011;40636;52.424;-1.948;2022-07-24T00:15:07;5.53;;;2.92;;
43363;SDS011;40636;52.424;-1.948;2022-07-24T00:17:34;4.70;;;3.03;;
43363;SDS011;40636;52.424;-1.948;2022-07-24T00:20:01;13.35;;;3.70;;
43363;SDS011;40636;52.424;-1.948;2022-07-24T00:22:28;9.40;;;2.83;;
43363;SDS011;40636;52.424;-1.948;2022-07-24T00:24:55;7.55;;;3.40;;
43363;SDS011;40636;52.424;-1.948;2022-07-24T00:27:22;7.75;;;2.83;;
43363;SDS011;40636;52.424;-1.948;2022-07-24T00:29:49;5.20;;;3.35;;
43363;SDS011;40636;52.424;-1.948;2022-07-24T00:32:16;6.78;;;2.95;;
43363;SDS011;40636;52.424;-1.948;2022-07-24T00:34:43;6.88;;;3.63;;
43363;SDS011;40636;52.424;-1.948;2022-07-24T00:37:10;4.50;;;3.03;;
43363;SDS011;40636;52.424;-1.948;2022-07-24T00:39:37;8.00;;;3.17;;
43363;SDS011;40636;52.424;-1.948;2022-07-24T00:42:04;9.20;;;3.75;;
43363;SDS011;40636;52.424;-1.948;2022-07-24T00:44:31;7.43;;;3.70;;
43363;SDS011;40636;52.424;-1.948;2022-07-24T00:46:58;5.90;;;3.60;;
43363;SDS011;40636;52.424;-1.948;2022-07-24T00:49:25;5.95;;;2.95;;
43363;SDS011;40636;52.424;-1.948;2022-07-24T00:51:52;6.05;;;3.42;;
43363;SDS011;40636;52.424;-1.948;2022-07-24T00:54:20;7.20;;;3.55;;
43363;SDS011;40636;52.424;-1.948;2022-07-24T00:56:49;13.65;;;4.43;;
43363;SDS011;40636;52.424;-1.948;2022-07-24T00:59:17;5.25;;;3.00;;
43363;SDS011;40636;52.424;-1.948;2022-07-24T01:01:45;7.72;;;3.55;;
43363;SDS011;40636;52.424;-1.948;2022-07-24T01:04:13;9.23;;;3.38;;
43363;SDS011;40636;52.424;-1.948;2022-07-24T01:06:44;9.07;;;3.30;;
43363;SDS011;40636;52.424;-1.948;2022-07-24T01:09:12;4.13;;;2.60;;
43363;SDS011;40636;52.424;-1.948;2022-07-24T01:11:40;10.13;;;3.50;;
43363;SDS011;40636;52.424;-1.948;2022-07-24T01:14:08;6.45;;;3.20;;
43363;SDS011;40636;52.424;-1.948;2022-07-24T01:16:36;7.20;;;3.30;;
43363;SDS011;40636;52.424;-1.948;2022-07-24T01:19:03;5.55;;;3.08;;
43363;SDS011;40636;52.424;-1.948;2022-07-24T01:21:31;8.35;;;3.65;;
43363;SDS011;40636;52.424;-1.948;2022-07-24T01:23:58;6.10;;;2.92;;
43363;SDS011;40636;52.424;-1.948;2022-07-24T01:26:25;7.25;;;3.65;;
43363;SDS011;40636;52.424;-1.948;2022-07-24T01:28:52;6.20;;;4.00;;
43363;SDS011;40636;52.424;-1.948;2022-07-24T01:31:19;7.85;;;3.42;;
43363;SDS011;40636;52.424;-1.948;2022-07-24T01:33:46;5.35;;;2.90;;
43363;SDS011;40636;52.424;-1.948;2022-07-24T01:36:13;5.00;;;2.42;;
43363;SDS011;40636;52.424;-1.948;2022-07-24T01:38:40;6.65;;;3.28;;
43363;SDS011;40636;52.424;-1.948;2022-07-24T01:41:07;4.35;;;3.08;;
43363;SDS011;40636;52.424;-1.948;2022-07-24T01:43:34;8.90;;;3.38;;
43363;SDS011;40636;52.424;-1.948;2022-07-24T01:46:01;8.27;;;3.42;;
43363;SDS011;40636;52.424;-1.948;2022-07-24T01:48:28;8.98;;;3.70;;
43363;SDS011;40636;52.424;-1.948;2022-07-24T01:50:55;5.88;;;3.38;;
43363;SDS011;40636;52.424;-1.948;2022-07-24T01:53:22;6.00;;;3.25;;
43363;SDS011;40636;52.424;-1.948;2022-07-24T01:55:49;11.18;;;4.45;;
43363;SDS011;40636;52.424;-1.948;2022-07-24T01:58:18;8.02;;;3.47;;
43363;SDS011;40636;52.424;-1.948;2022-07-24T02:00:48;7.45;;;3.17;;
43363;SDS011;40636;52.424;-1.948;2022-07-24T02:03:15;9.15;;;4.40;;
43363;SDS011;40636;52.424;-1.948;2022-07-24T02:05:43;6.32;;;3.58;;
43363;SDS011;40636;52.424;-1.948;2022-07-24T02:08:09;7.43;;;3.90;;
43363;SDS011;40636;52.424;-1.948;2022-07-24T02:10:36;9.70;;;4.20;;
43363;SDS011;40636;52.424;-1.948;2022-07-24T02:13:03;6.28;;;3.10;;
43363;SDS011;40636;52.424;-1.948;2022-07-24T02:15:31;6.28;;;3.55;;
43363;SDS011;40636;52.424;-1.948;2022-07-24T02:17:59;5.20;;;3.08;;
43363;SDS011;40636;52.424;-1.948;2022-07-24T02:20:27;9.90;;;3.10;;
43363;SDS011;40636;52.424;-1.948;2022-07-24T02:22:55;6.25;;;3.13;;
43363;SDS011;40636;52.424;-1.948;2022-07-24T02:25:22;6.55;;;3.28;;
43363;SDS011;40636;52.424;-1.948;2022-07-24T02:27:49;4.05;;;3.05;;
43363;SDS011;40636;52.424;-1.948;2022-07-24T02:30:17;4.72;;;3.45;;
43363;SDS011;40636;52.424;-1.948;2022-07-24T02:32:47;8.13;;;3.72;;
43363;SDS011;40636;52.424;-1.948;2022-07-24T02:35:14;8.38;;;3.47;;
43363;SDS011;40636;52.424;-1.948;2022-07-24T02:37:42;6.75;;;4.18;;
43363;SDS011;40636;52.424;-1.948;2022-07-24T02:40:11;4.50;;;2.97;;
43363;SDS011;40636;52.424;-1.948;2022-07-24T02:42:39;6.70;;;2.90;;
43363;SDS011;40636;52.424;-1.948;2022-07-24T02:45:06;7.75;;;4.22;;
43363;SDS011;40636;52.424;-1.948;2022-07-24T02:47:34;8.75;;;3.55;;
43363;SDS011;40636;52.424;-1.948;2022-07-24T02:50:03;8.57;;;3.45;;
43363;SDS011;40636;52.424;-1.948;2022-07-24T02:52:30;7.68;;;4.20;;
43363;SDS011;40636;52.424;-1.948;2022-07-24T02:54:57;6.32;;;2.90;;
43363;SDS011;40636;52.424;-1.948;2022-07-24T02:57:24;7.72;;;3.50;;
43363;SDS011;40636;52.424;-1.948;2022-07-24T02:59:50;8.90;;;4.88;;
43363;SDS011;40636;52.424;-1.948;2022-07-24T03:02:19;4.90;;;3.10;;
43363;SDS011;40636;52.424;-1.948;2022-07-24T03:04:46;9.02;;;3.42;;
43363;SDS011;40636;52.424;-1.948;2022-07-24T03:07:14;4.07;;;3.42;;
43363;SDS011;40636;52.424;-1.948;2022-07-24T03:09:41;8.48;;;3.53;;
43363;SDS011;40636;52.424;-1.948;2022-07-24T03:12:08;7.00;;;3.33;;
43363;SDS011;40636;52.424;-1.948;2022-07-24T03:14:35;7.78;;;3.33;;
43363;SDS011;40636;52.424;-1.948;2022-07-24T03:17:04;4.43;;;2.75;;
43363;SDS011;40636;52.424;-1.948;2022-07-24T03:19:31;7.22;;;3.92;;
43363;SDS011;40636;52.424;-1.948;2022-07-24T03:21:58;5.05;;;3.03;;
43363;SDS011;40636;52.424;-1.948;2022-07-24T03:24:25;7.53;;;3.80;;
43363;SDS011;40636;52.424;-1.948;2022-07-24T03:26:52;4.30;;;2.80;;
43363;SDS011;40636;52.424;-1.948;2022-07-24T03:29:19;8.45;;;3.78;;
43363;SDS011;40636;52.424;-1.948;2022-07-24T03:31:46;4.10;;;3.00;;
43363;SDS011;40636;52.424;-1.948;2022-07-24T03:34:13;7.38;;;2.78;;
43363;SDS011;40636;52.424;-1.948;2022-07-24T03:36:40;6.68;;;3.58;;
43363;SDS011;40636;52.424;-1.948;2022-07-24T03:39:07;5.95;;;3.03;;
43363;SDS011;40636;52.424;-1.948;2022-07-24T03:41:35;6.32;;;3.30;;
43363;SDS011;40636;52.424;-1.948;2022-07-24T03:44:02;6.00;;;3.20;;
43363;SDS011;40636;52.424;-1.948;2022-07-24T03:46:29;6.18;;;3.03;;
43363;SDS011;40636;52.424;-1.948;2022-07-24T03:48:56;5.95;;;2.45;;
43363;SDS011;40636;52.424;-1.948;2022-07-24T03:51:23;6.18;;;3.40;;
43363;SDS011;40636;52.424;-1.948;2022-07-24T03:53:52;5.15;;;2.72;;
43363;SDS011;40636;52.424;-1.948;2022-07-24T03:56:20;5.72;;;2.92;;
43363;SDS011;40636;52.424;-1.948;2022-07-24T03:58:51;6.38;;;2.90;;
43363;SDS011;40636;52.424;-1.948;2022-07-24T04:01:18;8.00;;;2.58;;
43363;SDS011;40636;52.424;-1.948;2022-07-24T04:03:45;5.20;;;3.03;;
43363;SDS011;40636;52.424;-1.948;2022-07-24T04:06:12;8.75;;;3.17;;
43363;SDS011;40636;52.424;-1.948;2022-07-24T04:08:39;11.70;;;4.57;;
43363;SDS011;40636;52.424;-1.948;2022-07-24T04:11:06;5.32;;;2.80;;
43363;SDS011;40636;52.424;-1.948;2022-07-24T04:13:34;5.30;;;3.40;;
43363;SDS011;40636;52.424;-1.948;2022-07-24T04:16:08;5.00;;;2.63;;
43363;SDS011;40636;52.424;-1.948;2022-07-24T04:18:35;5.95;;;3.25;;
43363;SDS011;40636;52.424;-1.948;2022-07-24T04:21:02;3.03;;;2.10;;
43363;SDS011;40636;52.424;-1.948;2022-07-24T04:23:29;7.65;;;2.60;;
43363;SDS011;40636;52.424;-1.948;2022-07-24T04:25:56;5.18;;;2.72;;
43363;SDS011;40636;52.424;-1.948;2022-07-24T04:28:23;4.85;;;2.45;;
43363;SDS011;40636;52.424;-1.948;2022-07-24T04:30:50;7.20;;;2.97;;
43363;SDS011;40636;52.424;-1.948;2022-07-24T04:33:16;4.95;;;2.80;;
43363;SDS011;40636;52.424;-1.948;2022-07-24T04:35:43;5.93;;;2.35;;
43363;SDS011;40636;52.424;-1.948;2022-07-24T04:38:11;5.28;;;2.10;;
43363;SDS011;40636;52.424;-1.948;2022-07-24T04:40:37;7.97;;;2.58;;
43363;SDS011;40636;52.424;-1.948;2022-07-24T04:43:04;5.03;;;2.50;;
43363;SDS011;40636;52.424;-1.948;2022-07-24T04:45:31;5.88;;;3.83;;
43363;SDS011;40636;52.424;-1.948;2022-07-24T04:48:01;4.13;;;2.00;;
43363;SDS011;40636;52.424;-1.948;2022-07-24T04:50:28;6.45;;;2.85;;
43363;SDS011;40636;52.424;-1.948;2022-07-24T04:52:55;8.60;;;2.28;;
43363;SDS011;40636;52.424;-1.948;2022-07-24T04:55:22;5.68;;;2.50;;
43363;SDS011;40636;52.424;-1.948;2022-07-24T04:57:49;4.25;;;2.40;;
43363;SDS011;40636;52.424;-1.948;2022-07-24T05:00:16;4.65;;;2.40;;
43363;SDS011;40636;52.424;-1.948;2022-07-24T05:02:43;4.10;;;1.80;;
43363;SDS011;40636;52.424;-1.948;2022-07-24T05:05:10;5.18;;;2.03;;
43363;SDS011;40636;52.424;-1.948;2022-07-24T05:07:37;5.13;;;2.80;;
43363;SDS011;40636;52.424;-1.948;2022-07-24T05:10:04;3.15;;;2.45;;
43363;SDS011;40636;52.424;-1.948;2022-07-24T05:12:32;6.03;;;3.05;;
43363;SDS011;40636;52.424;-1.948;2022-07-24T05:14:59;3.72;;;1.95;;
43363;SDS011;40636;52.424;-1.948;2022-07-24T05:17:25;4.40;;;2.40;;
43363;SDS011;40636;52.424;-1.948;2022-07-24T05:19:52;6.22;;;2.55;;
43363;SDS011;40636;52.424;-1.948;2022-07-24T05:22:19;3.90;;;2.03;;
43363;SDS011;40636;52.424;-1.948;2022-07-24T05:24:47;5.75;;;2.67;;
43363;SDS011;40636;52.424;-1.948;2022-07-24T05:27:14;7.03;;;2.25;;
43363;SDS011;40636;52.424;-1.948;2022-07-24T05:29:42;4.80;;;2.53;;
43363;SDS011;40636;52.424;-1.948;2022-07-24T05:32:09;5.55;;;2.00;;
43363;SDS011;40636;52.424;-1.948;2022-07-24T05:34:36;3.22;;;1.92;;
43363;SDS011;40636;52.424;-1.948;2022-07-24T05:37:07;3.22;;;1.98;;
43363;SDS011;40636;52.424;-1.948;2022-07-24T05:39:34;2.40;;;1.85;;
43363;SDS011;40636;52.424;-1.948;2022-07-24T05:42:02;7.60;;;2.20;;
43363;SDS011;40636;52.424;-1.948;2022-07-24T05:44:30;4.00;;;1.83;;
43363;SDS011;40636;52.424;-1.948;2022-07-24T05:46:57;6.13;;;2.25;;
43363;SDS011;40636;52.424;-1.948;2022-07-24T05:49:24;3.20;;;1.63;;
43363;SDS011;40636;52.424;-1.948;2022-07-24T05:51:52;5.15;;;2.03;;
43363;SDS011;40636;52.424;-1.948;2022-07-24T05:54:19;5.07;;;2.10;;
43363;SDS011;40636;52.424;-1.948;2022-07-24T05:56:46;5.75;;;2.08;;
43363;SDS011;40636;52.424;-1.948;2022-07-24T05:59:13;11.45;;;2.50;;
43363;SDS011;40636;52.424;-1.948;2022-07-24T06:01:40;2.80;;;1.65;;
43363;SDS011;40636;52.424;-1.948;2022-07-24T06:04:07;3.92;;;2.13;;
43363;SDS011;40636;52.424;-1.948;2022-07-24T06:06:34;4.05;;;1.92;;
43363;SDS011;40636;52.424;-1.948;2022-07-24T06:09:01;4.20;;;1.95;;
43363;SDS011;40636;52.424;-1.948;2022-07-24T06:11:29;5.30;;;1.77;;
43363;SDS011;40636;52.424;-1.948;2022-07-24T06:13:56;4.25;;;1.60;;
43363;SDS011;40636;52.424;-1.948;2022-07-24T06:16:25;4.20;;;1.58;;
43363;SDS011;40636;52.424;-1.948;2022-07-24T06:18:52;5.13;;;2.35;;
43363;SDS011;40636;52.424;-1.948;2022-07-24T06:21:19;4.78;;;1.30;;
43363;SDS011;40636;52.424;-1.948;2022-07-24T06:23:46;4.82;;;1.73;;
43363;SDS011;40636;52.424;-1.948;2022-07-24T06:26:13;2.65;;;1.55;;
43363;SDS011;40636;52.424;-1.948;2022-07-24T06:28:40;1.98;;;1.63;;
43363;SDS011;40636;52.424;-1.948;2022-07-24T06:31:06;2.83;;;1.15;;
43363;SDS011;40636;52.424;-1.948;2022-07-24T06:33:38;5.45;;;1.92;;
43363;SDS011;40636;52.424;-1.948;2022-07-24T06:36:05;2.58;;;1.58;;
43363;SDS011;40636;52.424;-1.948;2022-07-24T06:38:33;2.75;;;1.25;;
43363;SDS011;40636;52.424;-1.948;2022-07-24T06:41:02;1.30;;;1.17;;
43363;SDS011;40636;52.424;-1.948;2022-07-24T06:43:29;1.58;;;1.00;;
43363;SDS011;40636;52.424;-1.948;2022-07-24T06:45:56;2.95;;;1.50;;
43363;SDS011;40636;52.424;-1.948;2022-07-24T06:48:23;3.90;;;1.75;;
43363;SDS011;40636;52.424;-1.948;2022-07-24T06:50:50;4.53;;;1.85;;
43363;SDS011;40636;52.424;-1.948;2022-07-24T06:53:17;6.15;;;2.25;;
43363;SDS011;40636;52.424;-1.948;2022-07-24T06:55:44;3.58;;;1.50;;
43363;SDS011;40636;52.424;-1.948;2022-07-24T06:58:11;2.35;;;1.55;;
43363;SDS011;40636;52.424;-1.948;2022-07-24T07:00:39;4.00;;;1.30;;
43363;SDS011;40636;52.424;-1.948;2022-07-24T07:03:06;2.22;;;1.17;;
43363;SDS011;40636;52.424;-1.948;2022-07-24T07:05:33;4.57;;;1.08;;
43363;SDS011;40636;52.424;-1.948;2022-07-24T07:07:59;2.42;;;1.40;;
43363;SDS011;40636;52.424;-1.948;2022-07-24T07:10:26;2.58;;;1.20;;
43363;SDS011;40636;52.424;-1.948;2022-07-24T07:12:53;1.45;;;1.20;;
43363;SDS011;40636;52.424;-1.948;2022-07-24T07:15:20;3.67;;;1.48;;
43363;SDS011;40636;52.424;-1.948;2022-07-24T07:17:47;2.20;;;1.15;;
43363;SDS011;40636;52.424;-1.948;2022-07-24T07:20:14;3.30;;;1.00;;
43363;SDS011;40636;52.424;-1.948;2022-07-24T07:22:41;2.65;;;1.33;;
43363;SDS011;40636;52.424;-1.948;2022-07-24T07:25:09;3.75;;;1.20;;
43363;SDS011;40636;52.424;-1.948;2022-07-24T07:27:36;2.90;;;1.45;;
43363;SDS011;40636;52.424;-1.948;2022-07-24T07:30:04;5.72;;;2.60;;
43363;SDS011;40636;52.424;-1.948;2022-07-24T07:32:32;4.47;;;1.60;;
43363;SDS011;40636;52.424;-1.948;2022-07-24T07:34:59;2.45;;;1.90;;
43363;SDS011;40636;52.424;-1.948;2022-07-24T07:37:30;1.73;;;1.13;;
43363;SDS011;40636;52.424;-1.948;2022-07-24T07:39:57;1.92;;;1.30;;
43363;SDS011;40636;52.424;-1.948;2022-07-24T07:42:24;2.15;;;1.10;;
43363;SDS011;40636;52.424;-1.948;2022-07-24T07:44:52;6.57;;;1.27;;
43363;SDS011;40636;52.424;-1.948;2022-07-24T07:47:19;4.50;;;1.58;;
43363;SDS011;40636;52.424;-1.948;2022-07-24T07:49:46;2.00;;;1.40;;
43363;SDS011;40636;52.424;-1.948;2022-07-24T07:52:13;2.47;;;1.10;;
43363;SDS011;40636;52.424;-1.948;2022-07-24T07:54:40;2.25;;;1.33;;
43363;SDS011;40636;52.424;-1.948;2022-07-24T07:57:07;2.28;;;1.23;;
43363;SDS011;40636;52.424;-1.948;2022-07-24T07:59:34;2.33;;;1.65;;
43363;SDS011;40636;52.424;-1.948;2022-07-24T08:02:01;2.85;;;1.10;;
43363;SDS011;40636;52.424;-1.948;2022-07-24T08:04:28;2.00;;;1.40;;
43363;SDS011;40636;52.424;-1.948;2022-07-24T08:06:57;4.15;;;1.42;;
43363;SDS011;40636;52.424;-1.948;2022-07-24T08:09:25;2.28;;;1.13;;
43363;SDS011;40636;52.424;-1.948;2022-07-24T08:11:51;6.63;;;1.38;;
43363;SDS011;40636;52.424;-1.948;2022-07-24T08:14:19;2.08;;;1.23;;
43363;SDS011;40636;52.424;-1.948;2022-07-24T08:16:46;6.90;;;2.30;;
43363;SDS011;40636;52.424;-1.948;2022-07-24T08:19:12;2.92;;;1.02;;
43363;SDS011;40636;52.424;-1.948;2022-07-24T08:21:40;1.95;;;1.20;;
43363;SDS011;40636;52.424;-1.948;2022-07-24T08:24:07;2.10;;;1.00;;
43363;SDS011;40636;52.424;-1.948;2022-07-24T08:26:34;2.38;;;1.15;;
43363;SDS011;40636;52.424;-1.948;2022-07-24T08:29:01;2.08;;;1.23;;
43363;SDS011;40636;52.424;-1.948;2022-07-24T08:31:29;4.93;;;1.42;;
43363;SDS011;40636;52.424;-1.948;2022-07-24T08:33:56;1.75;;;1.33;;
43363;SDS011;40636;52.424;-1.948;2022-07-24T08:36:23;2.80;;;1.10;;
43363;SDS011;40636;52.424;-1.948;2022-07-24T08:38:50;2.65;;;1.08;;
43363;SDS011;40636;52.424;-1.948;2022-07-24T08:41:18;3.15;;;1.10;;
43363;SDS011;40636;52.424;-1.948;2022-07-24T08:43:50;1.83;;;1.10;;
43363;SDS011;40636;52.424;-1.948;2022-07-24T08:46:17;3.13;;;1.25;;
43363;SDS011;40636;52.424;-1.948;2022-07-24T08:48:45;3.10;;;1.30;;
43363;SDS011;40636;52.424;-1.948;2022-07-24T08:51:12;1.70;;;1.20;;
43363;SDS011;40636;52.424;-1.948;2022-07-24T08:53:42;2.33;;;1.30;;
43363;SDS011;40636;52.424;-1.948;2022-07-24T08:56:09;2.25;;;1.38;;
43363;SDS011;40636;52.424;-1.948;2022-07-24T08:58:37;3.40;;;1.20;;
43363;SDS011;40636;52.424;-1.948;2022-07-24T09:01:07;3.78;;;1.70;;
43363;SDS011;40636;52.424;-1.948;2022-07-24T09:03:42;2.80;;;1.80;;
43363;SDS011;40636;52.424;-1.948;2022-07-24T09:06:11;2.28;;;1.00;;
43363;SDS011;40636;52.424;-1.948;2022-07-24T09:08:39;3.30;;;1.85;;
43363;SDS011;40636;52.424;-1.948;2022-07-24T09:11:24;2.42;;;2.22;;
43363;SDS011;40636;52.424;-1.948;2022-07-24T09:13:53;1.55;;;1.40;;
43363;SDS011;40636;52.424;-1.948;2022-07-24T09:16:39;3.63;;;2.10;;
43363;SDS011;40636;52.424;-1.948;2022-07-24T09:19:07;1.50;;;1.38;;
43363;SDS011;40636;52.424;-1.948;2022-07-24T09:21:42;1.88;;;1.20;;
43363;SDS011;40636;52.424;-1.948;2022-07-24T09:24:14;2.67;;;1.58;;
43363;SDS011;40636;52.424;-1.948;2022-07-24T09:29:15;2.72;;;2.47;;
43363;SDS011;40636;52.424;-1.948;2022-07-24T09:32:01;2.65;;;1.90;;
43363;SDS011;40636;52.424;-1.948;2022-07-24T09:34:29;3.60;;;1.40;;
43363;SDS011;40636;52.424;-1.948;2022-07-24T09:37:05;2.40;;;1.55;;
43363;SDS011;40636;52.424;-1.948;2022-07-24T09:39:35;2.83;;;1.35;;
43363;SDS011;40636;52.424;-1.948;2022-07-24T09:42:04;2.20;;;1.30;;
43363;SDS011;40636;52.424;-1.948;2022-07-24T09:44:32;5.75;;;1.80;;
43363;SDS011;40636;52.424;-1.948;2022-07-24T09:47:08;1.70;;;1.15;;
43363;SDS011;40636;52.424;-1.948;2022-07-24T09:49:37;2.45;;;1.10;;
43363;SDS011;40636;52.424;-1.948;2022-07-24T09:54:33;1.65;;;1.35;;
43363;SDS011;40636;52.424;-1.948;2022-07-24T09:57:14;1.83;;;1.40;;
43363;SDS011;40636;52.424;-1.948;2022-07-24T09:59:49;3.38;;;1.23;;
43363;SDS011;40636;52.424;-1.948;2022-07-24T10:02:25;2.42;;;1.55;;
43363;SDS011;40636;52.424;-1.948;2022-07-24T10:04:55;4.28;;;1.60;;
43363;SDS011;40636;52.424;-1.948;2022-07-24T10:07:24;4.10;;;1.60;;
43363;SDS011;40636;52.424;-1.948;2022-07-24T10:09:54;3.20;;;1.42;;
43363;SDS011;40636;52.424;-1.948;2022-07-24T10:12:24;2.17;;;1.13;;
43363;SDS011;40636;52.424;-1.948;2022-07-24T10:14:53;1.33;;;0.90;;
43363;SDS011;40636;52.424;-1.948;2022-07-24T10:17:31;2.97;;;1.67;;
43363;SDS011;40636;52.424;-1.948;2022-07-24T10:20:22;1.67;;;1.33;;
43363;SDS011;40636;52.424;-1.948;2022-07-24T10:23:15;2.47;;;1.33;;
43363;SDS011;40636;52.424;-1.948;2022-07-24T10:25:52;3.33;;;1.50;;
43363;SDS011;40636;52.424;-1.948;2022-07-24T10:28:30;2.28;;;1.40;;
43363;SDS011;40636;52.424;-1.948;2022-07-24T10:31:05;3.58;;;3.25;;
43363;SDS011;40636;52.424;-1.948;2022-07-24T10:33:35;4.65;;;1.20;;
43363;SDS011;40636;52.424;-1.948;2022-07-24T10:36:06;2.85;;;1.30;;
43363;SDS011;40636;52.424;-1.948;2022-07-24T10:38:41;3.42;;;1.35;;
43363;SDS011;40636;52.424;-1.948;2022-07-24T10:41:20;1.67;;;1.10;;
43363;SDS011;40636;52.424;-1.948;2022-07-24T10:44:24;1.70;;;1.50;;
43363;SDS011;40636;52.424;-1.948;2022-07-24T10:47:20;2.38;;;1.52;;
43363;SDS011;40636;52.424;-1.948;2022-07-24T10:49:48;4.32;;;1.45;;
43363;SDS011;40636;52.424;-1.948;2022-07-24T10:52:29;4.38;;;1.80;;
43363;SDS011;40636;52.424;-1.948;2022-07-24T10:58:11;2.83;;;1.90;;
43363;SDS011;40636;52.424;-1.948;2022-07-24T11:00:46;3.90;;;1.90;;
43363;SDS011;40636;52.424;-1.948;2022-07-24T11:03:25;3.80;;;1.63;;
43363;SDS011;40636;52.424;-1.948;2022-07-24T11:06:11;3.80;;;2.00;;
43363;SDS011;40636;52.424;-1.948;2022-07-24T11:08:39;6.05;;;2.00;;
43363;SDS011;40636;52.424;-1.948;2022-07-24T11:11:14;2.97;;;1.75;;
43363;SDS011;40636;52.424;-1.948;2022-07-24T11:13:44;5.07;;;1.60;;
43363;SDS011;40636;52.424;-1.948;2022-07-24T11:16:17;2.30;;;1.48;;
43363;SDS011;40636;52.424;-1.948;2022-07-24T11:21:28;3.58;;;1.80;;
43363;SDS011;40636;52.424;-1.948;2022-07-24T11:29:25;5.35;;;2.10;;
43363;SDS011;40636;52.424;-1.948;2022-07-24T11:31:55;2.50;;;1.52;;
43363;SDS011;40636;52.424;-1.948;2022-07-24T11:34:29;8.07;;;2.35;;
43363;SDS011;40636;52.424;-1.948;2022-07-24T11:36:57;2.78;;;2.05;;
43363;SDS011;40636;52.424;-1.948;2022-07-24T11:42:00;2.03;;;1.30;;
43363;SDS011;40636;52.424;-1.948;2022-07-24T11:44:35;4.65;;;1.60;;
43363;SDS011;40636;52.424;-1.948;2022-07-24T11:52:12;3.78;;;1.95;;
43363;SDS011;40636;52.424;-1.948;2022-07-24T11:55:05;1.90;;;1.27;;
43363;SDS011;40636;52.424;-1.948;2022-07-24T11:57:43;3.95;;;1.90;;
43363;SDS011;40636;52.424;-1.948;2022-07-24T12:00:31;3.67;;;2.03;;
43363;SDS011;40636;52.424;-1.948;2022-07-24T12:02:59;3.58;;;1.70;;
43363;SDS011;40636;52.424;-1.948;2022-07-24T12:05:31;4.22;;;2.10;;
43363;SDS011;40636;52.424;-1.948;2022-07-24T12:08:15;3.72;;;1.58;;
43363;SDS011;40636;52.424;-1.948;2022-07-24T12:10:46;4.57;;;2.22;;
43363;SDS011;40636;52.424;-1.948;2022-07-24T12:13:16;7.05;;;1.60;;
43363;SDS011;40636;52.424;-1.948;2022-07-24T12:15:43;1.60;;;1.33;;
43363;SDS011;40636;52.424;-1.948;2022-07-24T12:18:11;4.30;;;2.45;;
43363;SDS011;40636;52.424;-1.948;2022-07-24T12:20:39;5.85;;;1.58;;
43363;SDS011;40636;52.424;-1.948;2022-07-24T12:23:11;4.00;;;1.50;;
43363;SDS011;40636;52.424;-1.948;2022-07-24T12:25:41;3.00;;;1.45;;
43363;SDS011;40636;52.424;-1.948;2022-07-24T12:30:46;4.63;;;1.95;;
43363;SDS011;40636;52.424;-1.948;2022-07-24T12:35:52;3.20;;;1.48;;
43363;SDS011;40636;52.424;-1.948;2022-07-24T12:38:24;9.68;;;2.95;;
43363;SDS011;40636;52.424;-1.948;2022-07-24T12:43:53;5.00;;;1.40;;
43363;SDS011;40636;52.424;-1.948;2022-07-24T12:49:04;5.15;;;2.03;;
43363;SDS011;40636;52.424;-1.948;2022-07-24T12:51:49;5.47;;;1.70;;
43363;SDS011;40636;52.424;-1.948;2022-07-24T12:56:51;4.55;;;1.30;;
43363;SDS011;40636;52.424;-1.948;2022-07-24T12:59:28;9.13;;;1.70;;
43363;SDS011;40636;52.424;-1.948;2022-07-24T13:02:05;2.80;;;1.63;;
43363;SDS011;40636;52.424;-1.948;2022-07-24T13:04:50;3.60;;;1.73;;
43363;SDS011;40636;52.424;-1.948;2022-07-24T13:07:21;4.63;;;1.40;;
43363;SDS011;40636;52.424;-1.948;2022-07-24T13:09:49;2.58;;;1.65;;
43363;SDS011;40636;52.424;-1.948;2022-07-24T13:12:18;5.18;;;1.75;;
43363;SDS011;40636;52.424;-1.948;2022-07-24T13:14:46;4.85;;;2.03;;
43363;SDS011;40636;52.424;-1.948;2022-07-24T13:17:14;1.98;;;1.60;;
43363;SDS011;40636;52.424;-1.948;2022-07-24T13:19:42;3.05;;;1.95;;
43363;SDS011;40636;52.424;-1.948;2022-07-24T13:22:12;4.43;;;1.75;;
43363;SDS011;40636;52.424;-1.948;2022-07-24T13:24:39;2.28;;;1.75;;
43363;SDS011;40636;52.424;-1.948;2022-07-24T13:27:08;3.55;;;1.52;;
43363;SDS011;40636;52.424;-1.948;2022-07-24T13:29:36;2.85;;;1.40;;
43363;SDS011;40636;52.424;-1.948;2022-07-24T13:32:03;11.38;;;1.80;;
43363;SDS011;40636;52.424;-1.948;2022-07-24T13:34:31;2.30;;;1.67;;
43363;SDS011;40636;52.424;-1.948;2022-07-24T13:37:02;3.40;;;1.38;;
43363;SDS011;40636;52.424;-1.948;2022-07-24T13:39:33;5.05;;;1.42;;
43363;SDS011;40636;52.424;-1.948;2022-07-24T13:42:02;4.55;;;1.42;;
43363;SDS011;40636;52.424;-1.948;2022-07-24T13:44:29;7.25;;;3.17;;
43363;SDS011;40636;52.424;-1.948;2022-07-24T13:46:56;3.65;;;1.50;;
43363;SDS011;40636;52.424;-1.948;2022-07-24T13:49:24;6.07;;;2.25;;
43363;SDS011;40636;52.424;-1.948;2022-07-24T13:51:51;4.72;;;1.40;;
43363;SDS011;40636;52.424;-1.948;2022-07-24T13:54:18;3.25;;;1.17;;
43363;SDS011;40636;52.424;-1.948;2022-07-24T13:56:45;3.03;;;1.50;;
43363;SDS011;40636;52.424;-1.948;2022-07-24T13:59:12;7.82;;;2.70;;
43363;SDS011;40636;52.424;-1.948;2022-07-24T14:01:39;3.60;;;1.38;;
43363;SDS011;40636;52.424;-1.948;2022-07-24T14:04:06;5.47;;;1.52;;
43363;SDS011;40636;52.424;-1.948;2022-07-24T14:06:56;3.17;;;1.85;;
43363;SDS011;40636;52.424;-1.948;2022-07-24T14:09:24;4.70;;;1.27;;
43363;SDS011;40636;52.424;-1.948;2022-07-24T14:11:52;5.35;;;1.63;;
43363;SDS011;40636;52.424;-1.948;2022-07-24T14:14:19;7.15;;;1.58;;
43363;SDS011;40636;52.424;-1.948;2022-07-24T14:16:46;3.08;;;1.52;;
43363;SDS011;40636;52.424;-1.948;2022-07-24T14:19:14;3.42;;;1.52;;
43363;SDS011;40636;52.424;-1.948;2022-07-24T14:21:41;3.38;;;1.90;;
43363;SDS011;40636;52.424;-1.948;2022-07-24T14:24:13;3.60;;;1.98;;
43363;SDS011;40636;52.424;-1.948;2022-07-24T14:26:43;3.95;;;2.10;;
43363;SDS011;40636;52.424;-1.948;2022-07-24T14:29:11;4.35;;;1.92;;
43363;SDS011;40636;52.424;-1.948;2022-07-24T14:31:38;4.10;;;2.17;;
43363;SDS011;40636;52.424;-1.948;2022-07-24T14:34:06;4.60;;;1.60;;
43363;SDS011;40636;52.424;-1.948;2022-07-24T14:36:34;3.50;;;2.30;;
43363;SDS011;40636;52.424;-1.948;2022-07-24T14:39:01;4.82;;;1.38;;
43363;SDS011;40636;52.424;-1.948;2022-07-24T14:41:28;3.40;;;1.52;;
43363;SDS011;40636;52.424;-1.948;2022-07-24T14:43:55;7.45;;;3.15;;
43363;SDS011;40636;52.424;-1.948;2022-07-24T14:46:27;5.15;;;1.85;;
43363;SDS011;40636;52.424;-1.948;2022-07-24T14:48:57;2.20;;;1.50;;
43363;SDS011;40636;52.424;-1.948;2022-07-24T14:51:24;3.88;;;1.85;;
43363;SDS011;40636;52.424;-1.948;2022-07-24T14:53:51;3.03;;;1.58;;
43363;SDS011;40636;52.424;-1.948;2022-07-24T14:56:17;9.57;;;3.90;;
43363;SDS011;40636;52.424;-1.948;2022-07-24T14:58:51;2.30;;;1.40;;
43363;SDS011;40636;52.424;-1.948;2022-07-24T15:01:18;2.40;;;1.63;;
43363;SDS011;40636;52.424;-1.948;2022-07-24T15:03:45;5.90;;;1.85;;
43363;SDS011;40636;52.424;-1.948;2022-07-24T15:06:12;3.28;;;1.67;;
43363;SDS011;40636;52.424;-1.948;2022-07-24T15:08:39;8.20;;;2.20;;
43363;SDS011;40636;52.424;-1.948;2022-07-24T15:11:06;10.15;;;1.73;;
43363;SDS011;40636;52.424;-1.948;2022-07-24T15:13:34;3.17;;;1.90;;
43363;SDS011;40636;52.424;-1.948;2022-07-24T15:16:04;4.25;;;1.90;;
43363;SDS011;40636;52.424;-1.948;2022-07-24T15:18:31;3.72;;;2.08;;
43363;SDS011;40636;52.424;-1.948;2022-07-24T15:20:58;4.50;;;2.13;;